createdAt,value
2023-01-04T00:03:24.780Z,21.07
2023-01-04T00:08:30.853Z,19.28
2023-01-04T00:13:38.213Z,24.28
2023-01-04T00:18:44.302Z,13.57
2023-01-04T00:23:51.001Z,20.35
2023-01-04T00:28:57.192Z,21.43
2023-01-04T00:34:03.934Z,24.28
2023-01-04T00:39:10.329Z,30.71
2023-01-04T00:44:15.782Z,21.07
2023-01-04T00:49:22.040Z,27.50
2023-01-04T00:54:32.393Z,21.07
2023-01-04T00:59:28.762Z,27.14
2023-01-04T01:04:35.953Z,23.93
2023-01-04T01:09:42.374Z,32.85
2023-01-04T01:14:48.493Z,20.00
2023-01-04T01:19:55.185Z,22.14
2023-01-04T01:25:02.315Z,21.43
2023-01-04T01:30:08.742Z,21.07
2023-01-04T01:35:14.885Z,31.43
2023-01-04T01:40:21.285Z,21.07
2023-01-04T01:45:27.514Z,18.93
2023-01-04T01:50:34.104Z,28.57
2023-01-04T01:55:40.327Z,19.28
2023-01-04T02:00:46.703Z,21.07
2023-01-04T02:05:52.778Z,21.78
2023-01-04T02:10:59.636Z,21.07
2023-01-04T02:16:05.820Z,18.93
2023-01-04T02:21:16.426Z,27.14
2023-01-04T02:26:13.713Z,21.43
2023-01-04T02:31:20.061Z,21.07
2023-01-04T02:36:27.565Z,22.50
2023-01-04T02:41:33.774Z,27.85
2023-01-04T02:46:40.201Z,20.00
2023-01-04T02:51:47.202Z,18.21
2023-01-04T02:56:58.396Z,21.07
2023-01-04T03:02:01.860Z,25.00
2023-01-04T03:07:08.324Z,20.35
2023-01-04T03:12:14.635Z,31.43
2023-01-04T03:17:20.916Z,24.64
2023-01-04T03:22:29.013Z,26.43
2023-01-04T03:27:37.834Z,23.21
2023-01-04T03:32:44.234Z,21.43
2023-01-04T03:37:50.714Z,21.07
2023-01-04T03:42:56.834Z,20.71
2023-01-04T03:48:04.165Z,21.43
2023-01-04T03:53:10.335Z,20.35
2023-01-04T03:58:16.721Z,25.35
2023-01-04T04:03:23.158Z,21.07
2023-01-04T04:08:30.553Z,18.57
2023-01-04T04:13:36.720Z,24.64
2023-01-04T04:18:44.391Z,21.43
2023-01-04T04:23:50.499Z,23.21
2023-01-04T04:28:57.210Z,21.07
2023-01-04T04:34:03.295Z,23.21
2023-01-04T04:39:10.023Z,19.64
2023-01-04T04:44:16.323Z,21.07
2023-01-04T04:49:22.624Z,31.78
2023-01-04T04:54:29.763Z,21.78
2023-01-04T04:59:36.455Z,31.07
2023-01-04T05:04:42.606Z,37.50
2023-01-04T05:09:49.914Z,23.21
2023-01-04T05:14:56.104Z,22.50
2023-01-04T05:20:02.896Z,24.64
2023-01-04T05:25:10.206Z,22.50
2023-01-04T05:30:17.859Z,22.14
2023-01-04T05:35:23.998Z,22.14
2023-01-04T05:40:31.386Z,22.14
2023-01-04T05:45:38.835Z,21.43
2023-01-04T05:50:45.132Z,22.85
2023-01-04T05:55:52.216Z,28.21
2023-01-04T06:01:03.534Z,21.43
2023-01-04T06:05:59.864Z,20.35
2023-01-04T06:11:06.094Z,28.57
2023-01-04T06:16:12.543Z,20.00
2023-01-04T06:21:18.642Z,27.50
2023-01-04T06:26:25.095Z,24.64
2023-01-04T06:31:33.430Z,20.71
2023-01-04T06:36:39.736Z,42.50
2023-01-04T06:41:48.139Z,21.43
2023-01-04T06:46:54.525Z,21.78
2023-01-04T06:52:07.128Z,35.35
2023-01-04T06:57:06.815Z,31.78
2023-01-04T07:02:15.305Z,21.07
2023-01-04T07:07:21.188Z,23.93
2023-01-04T07:12:27.334Z,30.00
2023-01-04T07:17:34.032Z,33.06
2023-01-04T07:22:40.256Z,34.51
2023-01-04T07:27:46.633Z,34.28
2023-01-04T07:32:52.870Z,21.07
2023-01-04T07:37:59.525Z,22.85
2023-01-04T07:43:07.795Z,34.64
2023-01-04T07:48:14.205Z,33.57
2023-01-04T07:53:20.504Z,24.28
2023-01-04T07:58:30.813Z,18.93
2023-01-04T08:03:27.164Z,25.71
2023-01-04T08:08:33.449Z,21.07
2023-01-04T08:13:39.884Z,30.00
2023-01-04T08:18:46.005Z,22.85
2023-01-04T08:23:52.686Z,23.21
2023-01-04T08:28:59.763Z,20.00
2023-01-04T08:34:07.131Z,22.85
2023-01-04T08:39:13.274Z,14.64
2023-01-04T08:44:19.957Z,20.71
2023-01-04T08:49:26.169Z,24.28
2023-01-04T08:54:33.164Z,18.93
2023-01-04T08:59:39.294Z,22.14
2023-01-04T09:04:46.691Z,20.00
2023-01-04T09:09:52.845Z,16.43
2023-01-04T09:14:59.215Z,18.57
2023-01-04T09:20:05.391Z,21.07
2023-01-04T09:25:12.726Z,20.00
2023-01-04T09:30:18.896Z,17.14
2023-01-04T09:35:25.264Z,21.78
2023-01-04T09:40:31.474Z,21.43
2023-01-04T09:45:38.433Z,12.14
2023-01-04T09:50:44.602Z,17.50
2023-01-04T09:55:53.166Z,20.35
2023-01-04T10:00:59.389Z,22.14
2023-01-04T10:06:07.538Z,12.14
2023-01-04T10:11:13.698Z,22.14
2023-01-04T10:16:30.291Z,13.57
2023-01-04T10:21:33.502Z,18.93
2023-01-04T10:26:34.008Z,18.93
2023-01-04T10:31:41.752Z,16.78
2023-01-04T10:36:50.245Z,0.00
2023-01-04T10:41:56.410Z,17.50
2023-01-04T10:47:02.855Z,21.07
2023-01-04T10:52:08.950Z,13.93
2023-01-04T10:57:17.505Z,19.64
2023-01-04T11:02:24.707Z,18.93
2023-01-04T11:07:30.624Z,13.93
2023-01-04T11:12:36.896Z,15.36
2023-01-04T11:17:44.422Z,12.14
2023-01-04T11:22:50.751Z,15.00
2023-01-04T11:27:58.278Z,4.64
2023-01-04T11:33:04.473Z,16.43
2023-01-04T11:38:14.096Z,15.71
2023-01-04T11:43:20.362Z,5.36
2023-01-04T11:48:26.751Z,15.71
2023-01-04T11:53:35.241Z,3.93
2023-01-04T11:58:44.859Z,15.00
2023-01-04T12:03:51.094Z,5.00
2023-01-04T12:09:01.093Z,19.64
2023-01-04T12:13:57.447Z,15.62
2023-01-04T12:19:03.765Z,11.62
2023-01-04T12:24:17.833Z,8.93
2023-01-04T12:29:15.035Z,2.86
2023-01-04T12:34:21.353Z,0.00
2023-01-04T12:39:27.968Z,5.00
2023-01-04T12:44:34.242Z,6.77
2023-01-04T12:49:40.874Z,4.29
2023-01-04T12:54:48.364Z,4.14
2023-01-04T12:59:55.104Z,0.00
2023-01-04T13:10:08.574Z,7.86
2023-01-04T13:15:17.699Z,18.34
2023-01-04T13:20:24.028Z,14.89
2023-01-04T13:25:30.348Z,8.93
2023-01-04T13:30:38.039Z,0.00
2023-01-04T13:35:44.125Z,10.14
2023-01-04T13:40:50.511Z,5.45
2023-01-04T13:46:02.083Z,4.29
2023-01-04T13:51:02.852Z,0.00
2023-01-04T13:56:08.899Z,10.90
2023-01-04T14:01:15.491Z,5.96
2023-01-04T14:06:23.165Z,5.36
2023-01-04T14:11:31.117Z,10.35
2023-01-04T14:16:37.514Z,10.34
2023-01-04T14:21:44.070Z,0.00
2023-01-04T14:26:50.298Z,0.00
2023-01-04T14:32:00.312Z,10.34
2023-01-04T14:36:56.877Z,3.21
2023-01-04T14:42:04.295Z,2.22
2023-01-04T14:47:11.359Z,6.90
2023-01-04T14:52:17.733Z,11.62
2023-01-04T14:57:24.474Z,3.06
2023-01-04T15:02:30.949Z,7.41
2023-01-04T15:07:39.806Z,0.75
2023-01-04T15:12:47.235Z,9.78
2023-01-04T15:17:53.863Z,3.57
2023-01-04T15:23:01.092Z,11.99
2023-01-04T15:28:09.787Z,2.26
2023-01-04T15:33:16.011Z,9.64
2023-01-04T15:38:23.502Z,12.86
2023-01-04T15:43:35.976Z,2.14
2023-01-04T15:48:45.442Z,7.14
2023-01-04T15:53:41.705Z,11.43
2023-01-04T15:58:48.134Z,14.64
2023-01-04T16:03:54.478Z,9.64
2023-01-04T16:09:00.956Z,7.14
2023-01-04T16:14:09.468Z,21.78
2023-01-04T16:19:19.842Z,20.35
2023-01-04T16:24:44.896Z,21.07
2023-01-04T16:29:21.723Z,19.64
2023-01-04T16:34:28.993Z,11.43
2023-01-04T16:40:06.225Z,20.00
2023-01-04T16:44:43.156Z,17.86
2023-01-04T16:49:49.406Z,21.43
2023-01-04T16:54:55.915Z,21.07
2023-01-04T17:00:02.204Z,18.21
2023-01-04T17:05:09.982Z,7.50
2023-01-04T17:10:17.309Z,21.07
2023-01-04T17:15:43.823Z,20.71
2023-01-04T17:20:32.481Z,13.57
2023-01-04T17:25:39.864Z,17.86
2023-01-04T17:30:46.019Z,12.14
2023-01-04T17:35:52.427Z,15.00
2023-01-04T17:41:00.893Z,17.86
2023-01-04T17:46:07.252Z,19.64
2023-01-04T17:51:13.392Z,20.00
2023-01-04T17:56:24.584Z,21.07
2023-01-04T18:01:20.656Z,21.78
2023-01-04T18:06:27.035Z,22.85
2023-01-04T18:11:33.672Z,17.86
2023-01-04T18:16:39.782Z,20.35
2023-01-04T18:21:47.424Z,17.50
2023-01-04T18:27:21.390Z,22.50
2023-01-04T18:31:59.733Z,20.35
2023-01-04T18:37:05.906Z,19.64
2023-01-04T18:42:15.009Z,24.28
2023-01-04T18:47:21.119Z,25.71
2023-01-04T18:52:27.589Z,21.43
2023-01-04T18:57:33.626Z,21.43
2023-01-04T19:02:41.514Z,20.71
2023-01-04T19:07:47.287Z,21.07
2023-01-04T19:12:54.002Z,19.64
2023-01-04T19:18:01.411Z,19.28
2023-01-04T19:23:08.202Z,17.14
2023-01-04T19:28:14.206Z,16.43
2023-01-04T19:33:20.944Z,18.57
2023-01-04T19:38:29.264Z,12.50
2023-01-04T19:43:35.848Z,19.64
2023-01-04T19:48:42.133Z,22.85
2023-01-04T19:53:52.955Z,25.00
2023-01-04T19:58:49.158Z,20.71
2023-01-04T20:03:55.463Z,21.43
2023-01-04T20:09:02.157Z,18.93
2023-01-04T20:14:08.451Z,20.00
2023-01-04T20:19:16.293Z,27.85
2023-01-04T20:24:22.485Z,25.35
2023-01-04T20:29:29.101Z,21.07
2023-01-04T20:34:35.300Z,27.85
2023-01-04T20:39:44.190Z,32.50
2023-01-04T20:44:50.347Z,17.50
2023-01-04T20:49:57.036Z,36.78
2023-01-04T20:55:03.204Z,18.21
2023-01-04T21:00:09.605Z,21.78
2023-01-04T21:05:15.837Z,27.50
2023-01-04T21:10:22.436Z,29.28
2023-01-04T21:15:28.753Z,33.92
2023-01-04T21:20:35.064Z,37.50
2023-01-04T21:25:42.144Z,35.35
2023-01-04T21:30:48.872Z,27.14
2023-01-04T21:35:55.011Z,22.85
2023-01-04T21:41:01.674Z,21.78
2023-01-04T21:46:07.909Z,32.50
2023-01-04T21:51:14.272Z,28.57
2023-01-04T21:56:20.542Z,21.43
2023-01-04T22:01:34.874Z,29.28
2023-01-04T22:06:35.748Z,30.00
2023-01-04T22:11:43.014Z,34.28
2023-01-04T22:16:49.215Z,23.93
2023-01-04T22:21:56.850Z,21.07
2023-01-04T22:27:02.987Z,20.35
2023-01-04T22:32:10.709Z,30.35
2023-01-04T22:37:16.870Z,26.07
2023-01-04T22:42:23.627Z,21.07
2023-01-04T22:47:29.767Z,30.71
2023-01-04T22:52:36.486Z,27.50
2023-01-04T22:57:43.475Z,22.50
2023-01-04T23:02:49.988Z,26.43
2023-01-04T23:07:56.403Z,21.07
2023-01-04T23:13:03.037Z,27.85
2023-01-04T23:18:09.428Z,26.07
2023-01-04T23:23:16.211Z,41.42
2023-01-04T23:28:22.610Z,25.35
2023-01-04T23:33:33.969Z,24.64
2023-01-04T23:38:36.728Z,33.92
2023-01-04T23:43:44.611Z,35.71
2023-01-04T23:48:50.843Z,23.21
2023-01-04T23:53:57.640Z,24.28
2023-01-04T23:59:03.918Z,26.78
